SBOSBO OTP / LROP
Speedbird OnlineSpeedbird Online OTP / LROP

Henri Coandă International Airport
00:49 -4.9°C

Location Bucharest, Romania
Latitude: 44.5711111
Longitude: 26.085
Web Airport Website | Wikipedia
Altitude 96 Meter / 314 Feet
Distance 2,065 KM / 1,283 Miles
from London.
Time Zone UTC +2 hours (Europe/Bucharest)
Codes IATA: OTP
ICAO: LROP
Currency £1 equals RON 5.51
Runways
RunwayLength (m)Surface
08L3500Asphalt
08R3500Asphalt
26L3500Asphalt
26R3500Asphalt
Radio
TypeDescriptionFrequency
APPBUCURESTI APP118.25
ATISOTOPENI ATIS118.5
GNDOTOPENI GND121.7
TWROTOPENI TWR120.9
Live ATC
METAR LROP 081430Z 06015KT CAVOK 00/M08 Q1041 NOSIG
TAF TAF AMD LROP 081432Z 0814/0912 06015KT CAVOK BECMG 0821/0823 VRB04KT
Weather As Of 09 Feb 2023 00:49
Description Few clouds
Wind 6 km/h from East (80°)
Cloud Cover 20%
Precipitation Rain: none, Snow: none
Sunrise 07:25
Sunset 17:34
Lounges MasterCard Business Lounge, Main Terminal
Rotations During the last 90 days there were
127 flights from LHR
129 flights to LHR



Support Speedbird Online

© 2017-2023 Speedbird Online